createdAt,value
2023-04-16T00:01:07.340Z,7.83
2023-04-16T00:03:35.537Z,7.74
2023-04-16T00:06:03.629Z,7.76
2023-04-16T00:08:31.156Z,7.79
2023-04-16T00:10:58.950Z,7.77
2023-04-16T00:13:27.574Z,7.42
2023-04-16T00:15:55.058Z,7.70
2023-04-16T00:18:22.863Z,7.67
2023-04-16T00:20:50.782Z,7.67
2023-04-16T00:23:18.416Z,7.65
2023-04-16T00:25:46.285Z,7.69
2023-04-16T00:28:13.669Z,7.70
2023-04-16T00:30:41.315Z,7.42
2023-04-16T00:33:09.107Z,7.48
2023-04-16T00:35:36.570Z,7.81
2023-04-16T00:38:04.070Z,7.87
2023-04-16T00:40:31.827Z,7.91
2023-04-16T00:42:59.304Z,7.94
2023-04-16T00:45:27.143Z,7.70
2023-04-16T00:47:57.125Z,7.91
2023-04-16T00:50:25.310Z,7.84
2023-04-16T00:52:52.814Z,7.86
2023-04-16T00:55:21.404Z,7.64
2023-04-16T00:57:49.111Z,7.97
2023-04-16T01:00:16.897Z,8.02
2023-04-16T01:02:44.746Z,8.08
2023-04-16T01:05:12.534Z,8.15
2023-04-16T01:07:40.014Z,8.16
2023-04-16T01:10:08.098Z,8.18
2023-04-16T01:12:35.887Z,7.94
2023-04-16T01:15:03.699Z,8.22
2023-04-16T01:17:31.409Z,8.24
2023-04-16T01:20:00.503Z,8.30
2023-04-16T01:22:28.965Z,8.35
2023-04-16T01:24:56.683Z,8.41
2023-04-16T01:27:24.187Z,8.49
2023-04-16T01:29:51.755Z,8.54
2023-04-16T01:32:20.740Z,8.57
2023-04-16T01:34:48.218Z,8.56
2023-04-16T01:37:15.836Z,8.54
2023-04-16T01:39:43.773Z,8.57
2023-04-16T01:42:11.522Z,8.64
2023-04-16T01:44:39.012Z,8.64
2023-04-16T01:47:06.704Z,8.60
2023-04-16T01:49:34.806Z,8.59
2023-04-16T01:52:02.429Z,8.23
2023-04-16T01:54:30.861Z,8.23
2023-04-16T01:56:59.451Z,8.26
2023-04-16T01:59:26.931Z,8.48
2023-04-16T02:01:55.422Z,8.28
2023-04-16T02:04:23.277Z,8.57
2023-04-16T02:06:50.962Z,8.62
2023-04-16T02:09:18.688Z,8.72
2023-04-16T02:11:46.932Z,8.77
2023-04-16T02:14:14.770Z,8.80
2023-04-16T02:16:43.043Z,8.79
2023-04-16T02:19:11.228Z,8.81
2023-04-16T02:21:40.204Z,8.79
2023-04-16T02:24:08.230Z,8.47
2023-04-16T02:26:35.841Z,8.72
2023-04-16T02:29:03.942Z,8.68
2023-04-16T02:31:32.680Z,8.67
2023-04-16T02:34:00.257Z,8.62
2023-04-16T02:36:28.021Z,8.48
2023-04-16T02:38:55.689Z,8.47
2023-04-16T02:41:23.102Z,8.40
2023-04-16T02:43:50.924Z,8.33
2023-04-16T02:46:18.375Z,8.26
2023-04-16T02:48:46.058Z,7.96
2023-04-16T02:51:14.176Z,8.08
2023-04-16T02:53:45.519Z,7.99
2023-04-16T02:56:13.481Z,7.84
2023-04-16T02:58:41.864Z,7.83
2023-04-16T03:01:09.548Z,7.74
2023-04-16T03:03:37.140Z,7.62
2023-04-16T03:06:04.983Z,7.51
2023-04-16T03:08:32.718Z,7.43
2023-04-16T03:11:00.264Z,7.26
2023-04-16T03:13:28.071Z,7.23
2023-04-16T03:15:55.769Z,7.12
2023-04-16T03:18:23.414Z,7.00
2023-04-16T03:20:54.479Z,6.97
2023-04-16T03:23:22.062Z,6.86
2023-04-16T03:25:49.528Z,6.80
2023-04-16T03:28:17.901Z,6.54
2023-04-16T03:30:54.762Z,6.66
2023-04-16T03:33:22.975Z,6.68
2023-04-16T03:35:58.438Z,6.62
2023-04-16T03:38:26.785Z,6.65
2023-04-16T03:40:54.819Z,6.53
2023-04-16T03:43:22.353Z,6.49
2023-04-16T03:45:50.867Z,6.42
2023-04-16T03:48:19.818Z,6.33
2023-04-16T03:50:48.588Z,6.16
2023-04-16T03:53:16.872Z,6.48
2023-04-16T03:55:44.307Z,6.41
2023-04-16T03:58:11.935Z,6.31
2023-04-16T04:00:42.439Z,6.37
2023-04-16T04:03:11.627Z,6.41
2023-04-16T04:05:41.272Z,6.46
2023-04-16T04:08:09.619Z,6.51
2023-04-16T04:10:37.878Z,6.57
2023-04-16T04:13:06.899Z,6.57
2023-04-16T04:15:34.994Z,6.65
2023-04-16T04:18:02.843Z,6.68
2023-04-16T04:20:30.509Z,6.79
2023-04-16T04:22:58.662Z,6.56
2023-04-16T04:25:26.919Z,6.88
2023-04-16T04:27:54.525Z,6.96
2023-04-16T04:30:22.236Z,7.10
2023-04-16T04:32:50.161Z,7.21
2023-04-16T04:35:17.947Z,7.29
2023-04-16T04:37:45.954Z,7.44
2023-04-16T04:40:14.309Z,7.59
2023-04-16T04:42:41.860Z,7.71
2023-04-16T04:45:10.580Z,7.83
2023-04-16T04:47:38.508Z,7.96
2023-04-16T04:50:06.679Z,8.07
2023-04-16T04:52:34.790Z,8.16
2023-04-16T04:55:02.887Z,8.20
2023-04-16T04:57:30.780Z,8.27
2023-04-16T04:59:58.414Z,8.31
2023-04-16T05:02:27.983Z,8.14
2023-04-16T05:04:55.755Z,8.34
2023-04-16T05:07:23.329Z,8.34
2023-04-16T05:09:51.985Z,8.35
2023-04-16T05:12:19.466Z,8.24
2023-04-16T05:14:46.898Z,8.43
2023-04-16T05:17:14.660Z,8.19
2023-04-16T05:19:42.237Z,8.53
2023-04-16T05:22:09.640Z,8.53
2023-04-16T05:24:37.373Z,8.58
2023-04-16T05:27:04.900Z,8.60
2023-04-16T05:29:32.544Z,8.64
2023-04-16T05:32:00.496Z,8.74
2023-04-16T05:34:27.938Z,8.83
2023-04-16T05:36:55.395Z,8.70
2023-04-16T05:39:23.229Z,8.96
2023-04-16T05:41:50.686Z,8.77
2023-04-16T05:44:18.120Z,9.14
2023-04-16T05:46:46.004Z,8.90
2023-04-16T05:49:13.437Z,9.25
2023-04-16T05:51:41.024Z,9.34
2023-04-16T05:54:08.807Z,9.39
2023-04-16T05:56:36.287Z,9.47
2023-04-16T05:59:04.486Z,9.27
2023-04-16T06:01:34.392Z,9.53
2023-04-16T06:04:02.548Z,9.55
2023-04-16T06:06:30.227Z,9.71
2023-04-16T06:08:58.025Z,9.82
2023-04-16T06:11:27.595Z,9.69
2023-04-16T06:13:55.047Z,9.90
2023-04-16T06:16:22.474Z,10.03
2023-04-16T06:18:50.543Z,10.09
2023-04-16T06:21:18.441Z,10.22
2023-04-16T06:23:46.094Z,10.29
2023-04-16T06:26:13.949Z,10.46
2023-04-16T06:28:41.309Z,10.55
2023-04-16T06:31:08.949Z,10.69
2023-04-16T06:33:36.712Z,10.75
2023-04-16T06:36:04.297Z,10.88
2023-04-16T06:38:32.161Z,10.91
2023-04-16T06:41:00.104Z,11.11
2023-04-16T06:43:27.639Z,11.27
2023-04-16T06:45:55.665Z,11.33
2023-04-16T06:48:23.451Z,11.37
2023-04-16T06:50:51.178Z,10.98
2023-04-16T06:53:18.943Z,11.38
2023-04-16T06:55:46.698Z,11.35
2023-04-16T06:58:14.130Z,11.73
2023-04-16T07:00:41.762Z,11.72
2023-04-16T07:03:10.059Z,11.59
2023-04-16T07:05:37.786Z,11.63
2023-04-16T07:08:05.477Z,11.73
2023-04-16T07:10:33.266Z,11.49
2023-04-16T07:13:01.671Z,11.67
2023-04-16T07:15:29.402Z,11.71
2023-04-16T07:17:57.276Z,11.51
2023-04-16T07:20:25.220Z,11.70
2023-04-16T07:22:52.829Z,11.58
2023-04-16T07:25:20.970Z,11.71
2023-04-16T07:27:48.536Z,11.62
2023-04-16T07:30:16.092Z,11.77
2023-04-16T07:32:43.950Z,11.84
2023-04-16T07:35:11.570Z,11.65
2023-04-16T07:37:39.020Z,11.75
2023-04-16T07:40:07.675Z,11.90
2023-04-16T07:42:35.895Z,12.02
2023-04-16T07:45:04.000Z,12.06
2023-04-16T07:47:31.761Z,12.10
2023-04-16T07:49:59.270Z,12.43
2023-04-16T07:52:26.889Z,12.24
2023-04-16T07:54:55.015Z,12.06
2023-04-16T07:57:22.510Z,12.20
2023-04-16T07:59:50.026Z,12.27
2023-04-16T08:02:18.022Z,12.22
2023-04-16T08:04:46.175Z,12.27
2023-04-16T08:07:13.736Z,12.15
2023-04-16T08:09:54.316Z,12.28
2023-04-16T08:12:22.359Z,12.64
2023-04-16T08:14:49.884Z,12.77
2023-04-16T08:17:17.313Z,12.79
2023-04-16T08:19:45.435Z,13.00
2023-04-16T08:22:13.556Z,12.99
2023-04-16T08:24:41.160Z,12.80
2023-04-16T08:27:18.565Z,13.28
2023-04-16T08:29:47.892Z,13.02
2023-04-16T08:32:15.683Z,13.10
2023-04-16T08:34:43.396Z,13.31
2023-04-16T08:37:10.936Z,13.19
2023-04-16T08:39:38.747Z,13.44
2023-04-16T08:42:12.039Z,13.44
2023-04-16T08:44:48.496Z,13.39
2023-04-16T08:47:16.784Z,13.48
2023-04-16T08:49:48.783Z,13.47
2023-04-16T08:52:20.297Z,13.55
2023-04-16T08:55:19.092Z,13.63
2023-04-16T08:57:54.338Z,13.78
2023-04-16T09:00:22.580Z,13.82
2023-04-16T09:02:51.571Z,13.82
2023-04-16T09:05:20.815Z,13.81
2023-04-16T09:07:48.787Z,14.21
2023-04-16T09:10:16.702Z,14.45
2023-04-16T09:12:44.888Z,14.36
2023-04-16T09:15:14.112Z,14.59
2023-04-16T09:17:41.871Z,14.74
2023-04-16T09:20:11.075Z,14.90
2023-04-16T09:22:40.792Z,14.79
2023-04-16T09:25:08.876Z,14.59
2023-04-16T09:27:36.531Z,14.81
2023-04-16T09:30:22.829Z,14.81
2023-04-16T09:32:52.166Z,14.25
2023-04-16T09:35:20.435Z,14.70
2023-04-16T09:37:57.925Z,14.59
2023-04-16T09:40:27.646Z,14.60
2023-04-16T09:43:00.919Z,14.39
2023-04-16T09:45:32.753Z,14.44
2023-04-16T09:48:05.588Z,14.16
2023-04-16T09:50:33.474Z,13.91
2023-04-16T09:53:02.620Z,13.72
2023-04-16T09:55:30.091Z,13.82
2023-04-16T09:58:01.485Z,14.09
2023-04-16T10:00:31.372Z,14.21
2023-04-16T10:03:08.763Z,14.05
2023-04-16T10:05:37.013Z,14.21
2023-04-16T10:08:12.577Z,14.60
2023-04-16T10:10:41.593Z,14.80
2023-04-16T10:13:10.523Z,14.78
2023-04-16T10:15:38.753Z,14.82
2023-04-16T10:18:07.363Z,15.12
2023-04-16T10:20:35.556Z,15.22
2023-04-16T10:23:03.425Z,15.38
2023-04-16T10:25:31.213Z,14.98
2023-04-16T10:28:00.153Z,14.99
2023-04-16T10:30:28.111Z,15.00
2023-04-16T10:32:58.956Z,14.96
2023-04-16T10:35:28.235Z,15.06
2023-04-16T10:38:25.140Z,14.72
2023-04-16T10:41:04.573Z,14.74
2023-04-16T10:43:34.466Z,14.84
2023-04-16T10:46:21.015Z,14.98
2023-04-16T10:48:50.768Z,15.00
2023-04-16T10:51:30.116Z,14.73
2023-04-16T10:54:02.928Z,14.96
2023-04-16T10:56:34.296Z,15.05
2023-04-16T10:59:05.958Z,15.12
2023-04-16T11:01:36.295Z,15.14
2023-04-16T11:04:22.184Z,15.20
2023-04-16T11:07:06.977Z,15.01
2023-04-16T11:10:03.130Z,14.89
2023-04-16T11:12:38.969Z,14.95
2023-04-16T11:15:06.751Z,15.23
2023-04-16T11:17:46.122Z,15.27
2023-04-16T11:20:27.857Z,15.76
2023-04-16T11:22:57.346Z,15.86
2023-04-16T11:25:29.879Z,16.72
2023-04-16T11:28:01.421Z,17.03
2023-04-16T11:30:29.900Z,17.37
2023-04-16T11:32:57.791Z,17.50
2023-04-16T11:35:25.515Z,17.80
2023-04-16T11:37:57.153Z,17.72
2023-04-16T11:40:26.188Z,17.85
2023-04-16T11:42:53.698Z,17.72
2023-04-16T11:45:21.705Z,17.67
2023-04-16T11:47:52.260Z,17.52
2023-04-16T11:50:21.492Z,17.39
2023-04-16T11:52:50.590Z,17.22
2023-04-16T11:55:18.487Z,17.47
2023-04-16T11:57:46.338Z,17.47
2023-04-16T12:00:15.205Z,17.85
2023-04-16T12:02:46.027Z,17.77
2023-04-16T12:05:32.741Z,18.03
2023-04-16T12:08:07.444Z,18.16
2023-04-16T12:10:36.871Z,17.66
2023-04-16T12:13:14.576Z,18.10
2023-04-16T12:15:53.725Z,17.63
2023-04-16T12:18:23.760Z,17.74
2023-04-16T12:20:51.444Z,17.89
2023-04-16T12:23:45.389Z,17.80
2023-04-16T12:26:14.368Z,17.35
2023-04-16T12:28:42.080Z,17.42
2023-04-16T12:31:11.141Z,17.68
2023-04-16T12:33:38.811Z,17.80
2023-04-16T12:36:19.710Z,17.55
2023-04-16T12:38:47.476Z,17.63
2023-04-16T12:41:15.010Z,17.82
2023-04-16T12:43:42.573Z,18.04
2023-04-16T12:46:10.361Z,18.28
2023-04-16T12:48:37.997Z,18.02
2023-04-16T12:51:06.186Z,17.60
2023-04-16T12:53:34.590Z,17.50
2023-04-16T12:56:02.385Z,18.06
2023-04-16T12:58:29.882Z,17.90
2023-04-16T13:00:57.769Z,18.30
2023-04-16T13:03:25.561Z,17.53
2023-04-16T13:05:53.254Z,17.88
2023-04-16T13:08:21.255Z,17.66
2023-04-16T13:10:48.838Z,17.74
2023-04-16T13:13:16.519Z,17.54
2023-04-16T13:15:44.334Z,17.67
2023-04-16T13:18:11.954Z,17.12
2023-04-16T13:20:39.566Z,17.22
2023-04-16T13:23:07.303Z,17.17
2023-04-16T13:25:35.088Z,17.34
2023-04-16T13:28:02.748Z,17.38
2023-04-16T13:30:33.439Z,17.47
2023-04-16T13:33:01.139Z,17.34
2023-04-16T13:35:29.357Z,17.57
2023-04-16T13:37:57.180Z,17.60
2023-04-16T13:40:24.695Z,17.56
2023-04-16T13:42:52.449Z,17.68
2023-04-16T13:45:20.697Z,17.76
2023-04-16T13:47:48.467Z,17.59
2023-04-16T13:50:16.120Z,17.93
2023-04-16T13:52:43.913Z,17.71
2023-04-16T13:55:14.046Z,18.02
2023-04-16T13:57:41.630Z,17.77
2023-04-16T14:00:11.865Z,17.53
2023-04-16T14:02:42.782Z,17.64
2023-04-16T14:05:10.623Z,17.63
2023-04-16T14:07:38.271Z,17.61
2023-04-16T14:10:06.874Z,17.55
2023-04-16T14:12:34.479Z,17.20
2023-04-16T14:15:04.356Z,17.39
2023-04-16T14:17:32.589Z,17.34
2023-04-16T14:20:00.428Z,17.13
2023-04-16T14:22:27.900Z,17.03
2023-04-16T14:24:56.176Z,16.67
2023-04-16T14:27:23.567Z,16.59
2023-04-16T14:29:51.025Z,16.23
2023-04-16T14:32:18.882Z,15.81
2023-04-16T14:34:46.798Z,15.94
2023-04-16T14:37:16.762Z,15.89
2023-04-16T14:39:44.871Z,15.72
2023-04-16T14:42:12.414Z,15.71
2023-04-16T14:44:39.940Z,15.51
2023-04-16T14:47:08.605Z,15.41
2023-04-16T14:49:36.375Z,15.09
2023-04-16T14:52:05.751Z,14.88
2023-04-16T14:54:34.084Z,14.52
2023-04-16T14:57:02.067Z,14.67
2023-04-16T14:59:29.530Z,14.55
2023-04-16T15:01:58.101Z,14.14
2023-04-16T15:04:26.025Z,14.47
2023-04-16T15:06:55.572Z,14.60
2023-04-16T15:09:23.838Z,14.73
2023-04-16T15:11:51.737Z,14.77
2023-04-16T15:14:19.538Z,14.51
2023-04-16T15:16:48.233Z,14.63
2023-04-16T15:19:15.768Z,14.79
2023-04-16T15:21:43.991Z,14.75
2023-04-16T15:24:12.326Z,14.64
2023-04-16T15:26:39.890Z,14.52
2023-04-16T15:29:07.500Z,14.61
2023-04-16T15:31:35.322Z,14.67
2023-04-16T15:34:02.988Z,14.62
2023-04-16T15:36:30.557Z,14.51
2023-04-16T15:38:58.416Z,14.50
2023-04-16T15:41:29.346Z,14.34
2023-04-16T15:43:56.970Z,14.57
2023-04-16T15:46:25.088Z,14.62
2023-04-16T15:48:52.683Z,14.67
2023-04-16T15:51:20.366Z,14.54
2023-04-16T15:53:49.980Z,14.66
2023-04-16T15:56:17.600Z,14.58
2023-04-16T15:58:45.053Z,14.60
2023-04-16T16:01:13.421Z,14.62
2023-04-16T16:03:41.682Z,14.59
2023-04-16T16:06:09.900Z,14.54
2023-04-16T16:08:38.448Z,14.53
2023-04-16T16:11:06.223Z,14.54
2023-04-16T16:13:35.872Z,14.55
2023-04-16T16:16:04.263Z,14.54
2023-04-16T16:18:32.315Z,14.16
2023-04-16T16:21:00.292Z,14.47
2023-04-16T16:23:28.029Z,14.46
2023-04-16T16:25:56.859Z,14.43
2023-04-16T16:28:25.184Z,14.33
2023-04-16T16:30:54.747Z,14.32
2023-04-16T16:33:22.739Z,14.28
2023-04-16T16:35:50.400Z,14.33
2023-04-16T16:38:18.128Z,14.21
2023-04-16T16:40:46.296Z,14.08
2023-04-16T16:43:14.135Z,14.25
2023-04-16T16:45:41.899Z,14.14
2023-04-16T16:48:10.339Z,14.15
2023-04-16T16:50:38.100Z,14.06
2023-04-16T16:53:06.403Z,13.97
2023-04-16T16:55:35.554Z,13.98
2023-04-16T16:58:04.169Z,13.95
2023-04-16T17:00:31.917Z,13.92
2023-04-16T17:03:00.000Z,13.61
2023-04-16T17:05:27.903Z,13.84
2023-04-16T17:07:55.644Z,13.79
2023-04-16T17:10:23.510Z,13.78
2023-04-16T17:12:51.932Z,13.68
2023-04-16T17:15:21.749Z,13.67
2023-04-16T17:17:50.616Z,13.63
2023-04-16T17:20:18.702Z,13.33
2023-04-16T17:22:47.240Z,13.58
2023-04-16T17:25:15.631Z,13.55
2023-04-16T17:27:43.358Z,13.50
2023-04-16T17:30:11.388Z,13.48
2023-04-16T17:32:39.674Z,13.43
2023-04-16T17:35:09.432Z,13.40
2023-04-16T17:37:37.242Z,13.39
2023-04-16T17:40:07.670Z,13.34
2023-04-16T17:42:36.326Z,13.33
2023-04-16T17:45:04.383Z,13.30
2023-04-16T17:47:35.707Z,13.28
2023-04-16T17:50:04.659Z,13.18
2023-04-16T17:52:32.527Z,13.23
2023-04-16T17:55:01.687Z,13.21
2023-04-16T17:57:30.029Z,13.17
2023-04-16T17:59:58.234Z,13.17
2023-04-16T18:02:26.305Z,13.17
2023-04-16T18:04:58.572Z,13.16
2023-04-16T18:07:26.513Z,13.10
2023-04-16T18:09:54.832Z,13.10
2023-04-16T18:12:22.858Z,13.08
2023-04-16T18:14:50.865Z,13.08
2023-04-16T18:17:21.900Z,13.06
2023-04-16T18:19:50.147Z,13.07
2023-04-16T18:22:18.190Z,13.06
2023-04-16T18:24:45.968Z,13.04
2023-04-16T18:27:13.647Z,13.09
2023-04-16T18:29:44.044Z,12.81
2023-04-16T18:32:13.038Z,13.07
2023-04-16T18:34:41.277Z,13.08
2023-04-16T18:37:09.390Z,13.07
2023-04-16T18:39:37.379Z,13.05
2023-04-16T18:42:05.464Z,12.76
2023-04-16T18:44:34.219Z,13.02
2023-04-16T18:47:01.798Z,12.97
2023-04-16T18:49:29.730Z,12.95
2023-04-16T18:51:57.640Z,12.92
2023-04-16T18:54:25.516Z,12.89
2023-04-16T18:56:53.294Z,12.88
2023-04-16T18:59:21.432Z,12.89
2023-04-16T19:01:49.304Z,12.89
2023-04-16T19:04:17.505Z,12.87
2023-04-16T19:06:45.981Z,12.93
2023-04-16T19:09:15.018Z,12.95
2023-04-16T19:11:43.331Z,12.96
2023-04-16T19:14:11.564Z,13.02
2023-04-16T19:16:39.462Z,12.87
2023-04-16T19:19:07.756Z,13.37
2023-04-16T19:21:35.594Z,13.59
2023-04-16T19:24:04.072Z,13.61
2023-04-16T19:26:31.801Z,13.62
2023-04-16T19:28:59.707Z,13.67
2023-04-16T19:31:27.788Z,13.65
2023-04-16T19:33:55.901Z,13.57
2023-04-16T19:36:23.601Z,13.66
2023-04-16T19:38:51.543Z,13.68
2023-04-16T19:41:19.589Z,13.67
2023-04-16T19:43:47.333Z,13.62
2023-04-16T19:46:15.492Z,13.67
2023-04-16T19:48:43.663Z,13.74
2023-04-16T19:51:11.448Z,13.73
2023-04-16T19:53:39.137Z,13.71
2023-04-16T19:56:07.118Z,13.70
2023-04-16T19:58:34.960Z,13.72
2023-04-16T20:01:08.713Z,13.67
2023-04-16T20:03:38.730Z,13.41
2023-04-16T20:06:07.876Z,13.61
2023-04-16T20:08:35.463Z,13.61
2023-04-16T20:11:04.433Z,13.58
2023-04-16T20:13:32.291Z,13.57
2023-04-16T20:16:01.169Z,13.47
2023-04-16T20:18:29.276Z,13.56
2023-04-16T20:20:57.227Z,13.52
2023-04-16T20:23:24.888Z,13.45
2023-04-16T20:25:52.704Z,13.43
2023-04-16T20:28:21.496Z,13.39
2023-04-16T20:30:50.876Z,13.39
2023-04-16T20:33:18.855Z,13.33
2023-04-16T20:35:47.095Z,13.36
2023-04-16T20:38:14.777Z,13.09
2023-04-16T20:40:45.023Z,13.31
2023-04-16T20:43:14.214Z,13.29
2023-04-16T20:45:46.172Z,12.93
2023-04-16T20:48:13.765Z,13.21
2023-04-16T20:50:41.520Z,13.23
2023-04-16T20:53:09.321Z,13.17
2023-04-16T20:55:36.770Z,13.06
2023-04-16T20:58:04.496Z,12.95
2023-04-16T21:00:32.412Z,12.86
2023-04-16T21:03:00.257Z,12.82
2023-04-16T21:05:30.032Z,12.85
2023-04-16T21:07:58.296Z,12.83
2023-04-16T21:10:25.823Z,12.77
2023-04-16T21:12:53.327Z,12.76
2023-04-16T21:15:21.359Z,12.73
2023-04-16T21:17:49.346Z,12.68
2023-04-16T21:20:16.979Z,12.67
2023-04-16T21:22:44.730Z,12.65
2023-04-16T21:25:12.314Z,12.39
2023-04-16T21:27:39.970Z,12.69
2023-04-16T21:30:08.563Z,12.70
2023-04-16T21:32:36.278Z,12.68
2023-04-16T21:35:04.025Z,12.70
2023-04-16T21:37:31.974Z,12.71
2023-04-16T21:40:00.192Z,12.72
2023-04-16T21:42:27.875Z,12.75
2023-04-16T21:44:55.697Z,12.72
2023-04-16T21:47:23.156Z,12.77
2023-04-16T21:49:50.676Z,12.76
2023-04-16T21:52:18.392Z,12.77
2023-04-16T21:54:46.126Z,12.78
2023-04-16T21:57:13.700Z,12.78
2023-04-16T21:59:41.497Z,12.51
2023-04-16T22:02:09.204Z,12.83
2023-04-16T22:04:40.089Z,12.84
2023-04-16T22:07:11.816Z,12.85
2023-04-16T22:09:40.429Z,12.85
2023-04-16T22:12:10.315Z,12.83
2023-04-16T22:14:44.074Z,12.88
2023-04-16T22:17:14.964Z,12.82
2023-04-16T22:19:44.597Z,12.83
2023-04-16T22:22:12.435Z,12.68
2023-04-16T22:24:40.415Z,12.81
2023-04-16T22:27:07.810Z,12.70
2023-04-16T22:29:35.457Z,12.48
2023-04-16T22:32:03.790Z,12.73
2023-04-16T22:34:31.184Z,12.68
2023-04-16T22:36:58.802Z,12.53
2023-04-16T22:39:28.556Z,12.56
2023-04-16T22:41:56.149Z,12.50
2023-04-16T22:44:23.646Z,12.43
2023-04-16T22:46:51.394Z,12.39
2023-04-16T22:49:18.879Z,12.26
2023-04-16T22:51:46.807Z,12.26
2023-04-16T22:54:14.786Z,12.19
2023-04-16T22:56:42.252Z,12.16
2023-04-16T22:59:09.987Z,12.12
2023-04-16T23:01:38.660Z,12.18
2023-04-16T23:04:06.453Z,12.19
2023-04-16T23:06:33.991Z,12.21
2023-04-16T23:09:01.963Z,12.27
2023-04-16T23:11:29.595Z,12.06
2023-04-16T23:13:57.216Z,12.30
2023-04-16T23:16:25.400Z,12.29
2023-04-16T23:18:52.991Z,12.30
2023-04-16T23:21:20.840Z,12.28
2023-04-16T23:23:48.835Z,12.04
2023-04-16T23:26:16.800Z,12.32
2023-04-16T23:28:44.774Z,12.35
2023-04-16T23:31:12.700Z,12.10
2023-04-16T23:33:40.711Z,12.35
2023-04-16T23:36:08.794Z,12.31
2023-04-16T23:38:36.654Z,12.22
2023-04-16T23:41:05.519Z,12.14
2023-04-16T23:43:34.732Z,12.04
2023-04-16T23:46:02.677Z,11.71
2023-04-16T23:48:30.551Z,11.97
2023-04-16T23:50:58.230Z,11.87
2023-04-16T23:53:26.011Z,11.85
2023-04-16T23:55:53.439Z,11.74
2023-04-16T23:58:20.990Z,11.72
